Time;durP1;ratioP1;P1;durP2;ratioP2;P2;SDS_P1;SDS_P2;PMS_P1;PMS_P2;Temp;Humidity;BMP_temperature;BMP_pressure;BME280_temperature;BME280_humidity;BME280_pressure;Samples;Min_cycle;Max_cycle;Signal;HPM_P1;HPM_P2
2023/07/08 00:00:34;;;;;;;4.65;4.10;;;17.20;99.90;;;;;;5052735;28;20127;-82
2023/07/08 00:02:59;;;;;;;5.40;4.05;;;17.00;99.90;;;;;;5051258;28;20658;-83
2023/07/08 00:05:25;;;;;;;5.53;4.10;;;17.00;99.90;;;;;;5052294;28;20037;-83
2023/07/08 00:07:51;;;;;;;5.53;4.00;;;17.00;99.90;;;;;;5069657;28;20059;-83
2023/07/08 00:10:21;;;;;;;6.03;3.92;;;17.00;99.90;;;;;;5068784;28;20044;-82
2023/07/08 00:12:49;;;;;;;4.28;3.80;;;16.90;99.90;;;;;;5069561;28;20146;-82
2023/07/08 00:15:16;;;;;;;7.47;3.72;;;16.90;99.90;;;;;;5069330;28;20055;-83
2023/07/08 00:17:42;;;;;;;4.45;3.85;;;16.90;99.90;;;;;;5068535;28;20065;-82
2023/07/08 00:20:50;;;;;;;4.97;3.88;;;16.80;99.90;;;;;;5068702;28;21076;-82
2023/07/08 00:23:16;;;;;;;6.13;4.15;;;16.80;99.90;;;;;;5029817;28;20523;-82
2023/07/08 00:25:42;;;;;;;6.35;4.10;;;16.70;99.90;;;;;;5052529;28;20073;-84
2023/07/08 00:28:14;;;;;;;5.75;4.20;;;16.80;99.90;;;;;;5050981;28;20051;-82
2023/07/08 00:30:40;;;;;;;6.30;4.18;;;16.90;99.90;;;;;;5068995;28;20554;-83
2023/07/08 00:33:06;;;;;;;8.48;4.25;;;16.70;99.90;;;;;;5068497;28;20258;-83
2023/07/08 00:35:38;;;;;;;4.75;3.90;;;16.60;99.90;;;;;;5051988;28;20060;-83
2023/07/08 00:38:28;;;;;;;5.68;4.32;;;16.60;99.90;;;;;;5070124;28;20041;-83
2023/07/08 00:41:06;;;;;;;5.22;3.90;;;16.50;99.90;;;;;;5052183;28;20037;-82
2023/07/08 00:43:43;;;;;;;6.30;4.25;;;16.50;99.90;;;;;;5051927;28;20150;-82
2023/07/08 00:46:21;;;;;;;7.25;4.57;;;16.50;99.90;;;;;;5051912;28;20044;-84
2023/07/08 00:48:48;;;;;;;5.03;4.25;;;16.50;99.90;;;;;;5051743;28;20454;-82
2023/07/08 00:51:22;;;;;;;5.45;4.50;;;16.40;99.90;;;;;;5055663;28;20102;-83
2023/07/08 00:53:48;;;;;;;4.85;4.35;;;16.40;99.90;;;;;;5048583;28;20053;-84
2023/07/08 00:56:26;;;;;;;7.20;4.80;;;16.80;99.90;;;;;;5048305;28;20162;-83
2023/07/08 00:59:00;;;;;;;6.30;4.80;;;16.40;99.90;;;;;;5031549;28;20040;-83
2023/07/08 01:01:28;;;;;;;4.68;4.28;;;16.30;99.90;;;;;;5064248;28;20037;-83
2023/07/08 01:03:55;;;;;;;4.70;4.15;;;16.30;99.90;;;;;;5050456;28;20077;-84
2023/07/08 01:06:23;;;;;;;6.78;4.20;;;16.20;99.90;;;;;;5068150;28;20052;-83
2023/07/08 01:08:52;;;;;;;5.53;4.22;;;16.30;99.90;;;;;;5051700;28;20044;-83
2023/07/08 01:11:21;;;;;;;5.32;4.22;;;16.30;99.90;;;;;;5051308;28;20080;-81
2023/07/08 01:13:50;;;;;;;6.30;4.78;;;16.20;99.90;;;;;;5069544;28;20504;-83
2023/07/08 01:16:16;;;;;;;5.47;4.65;;;16.70;99.90;;;;;;5051708;28;20106;-81
2023/07/08 01:18:43;;;;;;;5.97;4.90;;;16.20;99.90;;;;;;5051140;28;20512;-83
2023/07/08 01:21:29;;;;;;;5.95;4.40;;;16.20;99.90;;;;;;5067298;28;20090;-82
2023/07/08 01:23:55;;;;;;;7.65;4.82;;;16.20;99.90;;;;;;5051377;28;20045;-82
2023/07/08 01:26:24;;;;;;;5.47;4.90;;;16.20;99.90;;;;;;5067681;28;20055;-84
2023/07/08 01:28:50;;;;;;;5.03;4.63;;;16.30;99.90;;;;;;5051047;28;20044;-83
2023/07/08 01:31:16;;;;;;;5.63;4.88;;;16.20;99.90;;;;;;5066960;28;20040;-82
2023/07/08 01:33:42;;;;;;;8.32;4.88;;;16.20;99.90;;;;;;5050762;28;20052;-82
2023/07/08 01:36:12;;;;;;;7.30;4.90;;;16.70;99.90;;;;;;5066511;28;20044;-82
2023/07/08 01:38:39;;;;;;;5.97;4.47;;;16.20;99.90;;;;;;5066972;28;20052;-83
2023/07/08 01:41:05;;;;;;;7.43;5.15;;;16.50;99.90;;;;;;5067119;28;20132;-83
2023/07/08 01:43:31;;;;;;;8.23;5.18;;;16.20;99.90;;;;;;5067130;28;20052;-84
2023/07/08 01:46:01;;;;;;;6.88;4.72;;;16.20;99.90;;;;;;5067091;28;20484;-83
2023/07/08 01:48:33;;;;;;;6.80;4.72;;;16.20;99.90;;;;;;5063227;28;20101;-83
2023/07/08 01:51:04;;;;;;;7.65;4.80;;;16.20;99.90;;;;;;5065949;28;20052;-83
2023/07/08 01:53:41;;;;;;;7.53;5.05;;;16.20;99.90;;;;;;5067140;28;20032;-83
2023/07/08 01:56:09;;;;;;;5.90;5.18;;;16.10;99.90;;;;;;5050477;28;20055;-82
2023/07/08 01:58:34;;;;;;;6.45;4.70;;;16.10;99.90;;;;;;5067093;28;20040;-83
2023/07/08 02:01:00;;;;;;;6.13;4.72;;;16.10;99.90;;;;;;5050028;28;20039;-82
2023/07/08 02:03:27;;;;;;;6.72;5.05;;;16.10;99.90;;;;;;5066744;28;20067;-82
2023/07/08 02:05:53;;;;;;;5.93;4.80;;;16.10;99.90;;;;;;5048627;28;20117;-82
2023/07/08 02:08:19;;;;;;;8.88;4.95;;;16.10;99.90;;;;;;5066587;28;20049;-82
2023/07/08 02:10:49;;;;;;;5.60;4.90;;;16.00;99.90;;;;;;5067090;28;20040;-83
2023/07/08 02:13:15;;;;;;;9.05;5.68;;;16.00;99.90;;;;;;5066559;28;20064;-82
2023/07/08 02:15:41;;;;;;;9.88;5.30;;;16.00;99.90;;;;;;5043009;28;20049;-82
2023/07/08 02:18:06;;;;;;;6.97;5.47;;;15.80;99.90;;;;;;5065480;28;20106;-82
2023/07/08 02:20:32;;;;;;;7.03;5.35;;;16.00;99.90;;;;;;5063714;28;20513;-82
2023/07/08 02:22:58;;;;;;;7.32;5.68;;;15.90;99.90;;;;;;5066360;28;20508;-82
2023/07/08 02:25:23;;;;;;;8.30;5.50;;;15.90;99.90;;;;;;5068267;28;20106;-83
2023/07/08 02:27:49;;;;;;;6.28;5.10;;;15.90;99.90;;;;;;5066626;28;20048;-82
2023/07/08 02:30:15;;;;;;;6.72;4.90;;;15.80;99.90;;;;;;5063097;28;20947;-82
2023/07/08 02:32:41;;;;;;;5.60;5.05;;;15.80;99.90;;;;;;5046807;28;20081;-83
2023/07/08 02:35:08;;;;;;;5.85;5.15;;;15.80;99.90;;;;;;5046754;28;20131;-82
2023/07/08 02:37:34;;;;;;;5.90;5.30;;;15.80;99.90;;;;;;5030316;28;20045;-83
2023/07/08 02:40:00;;;;;;;6.97;5.38;;;15.70;99.90;;;;;;5042193;28;20124;-83
2023/07/08 02:42:26;;;;;;;6.07;5.40;;;15.70;99.90;;;;;;5050258;28;20044;-83
2023/07/08 02:44:52;;;;;;;7.97;5.80;;;15.70;99.90;;;;;;5067445;28;20105;-82
2023/07/08 02:47:17;;;;;;;7.68;5.45;;;16.00;99.90;;;;;;5066786;28;20530;-82
2023/07/08 02:49:43;;;;;;;6.20;5.55;;;15.80;99.90;;;;;;5051668;28;20045;-83
2023/07/08 02:52:09;;;;;;;6.38;5.32;;;15.70;99.90;;;;;;5033788;28;20607;-83
2023/07/08 02:54:35;;;;;;;8.18;5.03;;;15.70;99.90;;;;;;5050576;28;20052;-83
2023/07/08 02:57:00;;;;;;;8.40;5.43;;;15.70;99.90;;;;;;5051002;28;20114;-83
2023/07/08 02:59:28;;;;;;;7.28;5.35;;;15.60;99.90;;;;;;5056773;28;20037;-82
2023/07/08 03:01:53;;;;;;;6.35;5.30;;;15.70;99.90;;;;;;5071880;28;20089;-83
2023/07/08 03:04:21;;;;;;;5.75;5.15;;;15.60;99.90;;;;;;5039413;28;20057;-82
2023/07/08 03:06:49;;;;;;;7.93;5.85;;;15.60;99.90;;;;;;5051720;28;20052;-83
2023/07/08 03:09:15;;;;;;;6.05;5.40;;;15.60;99.90;;;;;;5053501;28;20045;-83
2023/07/08 03:11:40;;;;;;;7.80;5.30;;;15.60;99.90;;;;;;5070761;28;20044;-83
2023/07/08 03:14:06;;;;;;;8.43;5.75;;;15.60;99.90;;;;;;5053913;28;20462;-83
2023/07/08 03:16:32;;;;;;;6.40;5.30;;;15.60;99.90;;;;;;5065927;28;20471;-82
2023/07/08 03:18:58;;;;;;;6.65;5.43;;;15.60;99.90;;;;;;5069823;28;20515;-83
2023/07/08 03:21:24;;;;;;;7.65;5.63;;;15.60;99.90;;;;;;5069001;28;20083;-83
2023/07/08 03:23:51;;;;;;;7.45;5.47;;;15.70;99.90;;;;;;5070327;28;20044;-82
2023/07/08 03:26:20;;;;;;;6.90;5.90;;;15.50;99.90;;;;;;5071045;28;20087;-83
2023/07/08 03:28:46;;;;;;;6.25;5.65;;;15.50;99.90;;;;;;5053571;28;20044;-82
2023/07/08 03:31:12;;;;;;;7.82;5.68;;;15.50;99.90;;;;;;5053352;28;20075;-82
2023/07/08 03:33:38;;;;;;;7.63;5.28;;;15.50;99.90;;;;;;5069427;28;20044;-82
2023/07/08 03:36:16;;;;;;;6.63;5.10;;;15.50;99.90;;;;;;5069035;28;20090;-83
2023/07/08 03:38:41;;;;;;;8.93;5.30;;;15.50;99.90;;;;;;5069944;28;20044;-82
2023/07/08 03:41:07;;;;;;;6.50;5.60;;;15.80;99.90;;;;;;5069626;28;20043;-83
2023/07/08 03:43:33;;;;;;;6.32;5.22;;;15.50;99.90;;;;;;5053044;28;20040;-82
2023/07/08 03:45:59;;;;;;;6.72;5.90;;;15.90;99.90;;;;;;5052368;28;20404;-83
2023/07/08 03:48:25;;;;;;;7.03;5.90;;;15.50;99.90;;;;;;5070553;28;20082;-82
2023/07/08 03:50:51;;;;;;;6.30;5.45;;;15.50;99.90;;;;;;5051111;28;20052;-83
2023/07/08 03:53:16;;;;;;;8.55;5.88;;;15.50;99.90;;;;;;5069749;28;20048;-83
2023/07/08 03:55:42;;;;;;;8.25;6.40;;;15.50;99.90;;;;;;5052747;28;20489;-84
2023/07/08 03:58:08;;;;;;;6.53;5.80;;;15.30;99.90;;;;;;5070383;28;20040;-84
2023/07/08 04:00:34;;;;;;;6.47;5.63;;;15.50;99.90;;;;;;5051798;28;20048;-82
2023/07/08 04:02:59;;;;;;;7.82;6.32;;;15.50;99.90;;;;;;5068215;28;20041;-84
2023/07/08 04:05:28;;;;;;;7.55;6.22;;;15.50;99.90;;;;;;5068209;28;20048;-82
2023/07/08 04:07:53;;;;;;;7.28;6.35;;;15.60;99.90;;;;;;5069382;28;20048;-83
2023/07/08 04:10:19;;;;;;;6.03;5.43;;;15.60;99.90;;;;;;5068393;28;20520;-84
2023/07/08 04:12:44;;;;;;;7.85;5.53;;;15.60;99.90;;;;;;5063304;28;20078;-83
2023/07/08 04:15:11;;;;;;;6.95;5.90;;;15.60;99.90;;;;;;5038858;28;20129;-83
2023/07/08 04:17:47;;;;;;;7.47;6.13;;;15.60;99.90;;;;;;5047976;28;20142;-83
2023/07/08 04:20:18;;;;;;;6.35;5.70;;;15.70;99.90;;;;;;5043268;28;20036;-83
2023/07/08 04:22:45;;;;;;;7.80;6.00;;;16.00;99.90;;;;;;5051904;28;20066;-84
2023/07/08 04:25:14;;;;;;;7.78;6.13;;;15.70;99.90;;;;;;5052381;28;20045;-82
2023/07/08 04:27:40;;;;;;;8.43;5.97;;;15.70;99.90;;;;;;5052330;28;20052;-83
2023/07/08 04:30:07;;;;;;;7.50;5.68;;;15.70;99.90;;;;;;5064446;28;20059;-82
2023/07/08 04:32:33;;;;;;;6.70;5.88;;;15.70;99.90;;;;;;5069398;28;20178;-84
2023/07/08 04:34:58;;;;;;;8.55;6.20;;;15.70;99.90;;;;;;5068381;28;20123;-83
2023/07/08 04:37:24;;;;;;;7.03;5.70;;;15.80;99.90;;;;;;5048267;28;20082;-83
2023/07/08 04:39:49;;;;;;;8.82;5.90;;;16.20;99.90;;;;;;5054303;28;20479;-82
2023/07/08 04:42:17;;;;;;;7.53;5.82;;;15.80;99.90;;;;;;5068105;28;20052;-82
2023/07/08 04:44:43;;;;;;;7.38;5.70;;;15.80;99.90;;;;;;5050157;28;20058;-82
2023/07/08 04:47:12;;;;;;;7.07;5.53;;;15.90;99.90;;;;;;5068937;28;20048;-83
2023/07/08 04:49:37;;;;;;;6.57;5.60;;;16.20;99.90;;;;;;5051456;28;20091;-82
2023/07/08 04:52:03;;;;;;;9.05;5.93;;;16.00;99.90;;;;;;5049819;28;20052;-84
2023/07/08 04:54:29;;;;;;;8.55;5.88;;;16.00;99.90;;;;;;5062600;28;20070;-82
2023/07/08 04:56:55;;;;;;;7.90;5.93;;;16.10;99.90;;;;;;5063722;28;20044;-82
2023/07/08 04:59:23;;;;;;;6.35;5.70;;;16.10;99.90;;;;;;5060351;28;20041;-83
2023/07/08 05:01:50;;;;;;;6.78;5.78;;;16.20;99.90;;;;;;5060930;28;20110;-82
2023/07/08 05:04:18;;;;;;;7.82;5.80;;;16.30;99.90;;;;;;5062720;28;20052;-82
2023/07/08 05:06:43;;;;;;;7.75;6.03;;;16.50;99.90;;;;;;5063506;28;20425;-84
2023/07/08 05:09:10;;;;;;;7.10;6.40;;;16.40;99.90;;;;;;5061946;28;20098;-84
2023/07/08 05:11:36;;;;;;;6.65;5.97;;;16.40;99.90;;;;;;5063109;28;20086;-82
2023/07/08 05:14:03;;;;;;;6.30;5.63;;;16.50;99.90;;;;;;5047510;28;20082;-83
2023/07/08 05:16:29;;;;;;;6.80;6.13;;;16.30;99.90;;;;;;5067472;28;20484;-83
2023/07/08 05:18:54;;;;;;;7.78;5.75;;;16.70;99.90;;;;;;5046969;28;20119;-83
2023/07/08 05:21:20;;;;;;;6.68;5.95;;;16.60;99.90;;;;;;5064529;28;20090;-84
2023/07/08 05:23:49;;;;;;;6.20;5.20;;;16.80;99.90;;;;;;5065210;28;20051;-84
2023/07/08 05:26:15;;;;;;;5.70;4.93;;;16.90;99.90;;;;;;5049123;28;20748;-82
2023/07/08 05:28:41;;;;;;;6.47;4.95;;;17.20;99.90;;;;;;5049964;28;20044;-83
2023/07/08 05:31:07;;;;;;;7.55;5.53;;;17.20;99.90;;;;;;5065239;28;20043;-84
2023/07/08 05:33:33;;;;;;;5.43;4.85;;;17.40;99.90;;;;;;5048025;28;20693;-83
2023/07/08 05:35:59;;;;;;;6.25;4.75;;;17.90;99.90;;;;;;5067020;28;20044;-81
2023/07/08 05:38:25;;;;;;;6.72;5.22;;;19.00;99.90;;;;;;5068134;28;20043;-83
2023/07/08 05:40:54;;;;;;;6.18;4.72;;;19.60;99.90;;;;;;5064899;28;20052;-83
2023/07/08 05:43:20;;;;;;;6.00;5.20;;;21.20;99.90;;;;;;5067762;28;20044;-83
2023/07/08 05:45:46;;;;;;;7.90;5.13;;;21.60;99.90;;;;;;5050812;28;20147;-82
2023/07/08 05:48:12;;;;;;;5.00;4.50;;;22.00;99.90;;;;;;5050336;28;20041;-83
2023/07/08 05:50:39;;;;;;;5.97;4.55;;;22.60;99.90;;;;;;5047889;28;20488;-83
2023/07/08 05:53:05;;;;;;;5.97;4.38;;;22.80;99.90;;;;;;5067018;28;20464;-85
2023/07/08 05:55:34;;;;;;;5.30;4.30;;;23.10;99.00;;;;;;5065228;28;20075;-87
2023/07/08 05:57:59;;;;;;;4.90;4.40;;;23.30;98.00;;;;;;5049448;28;20048;-84
2023/07/08 06:00:25;;;;;;;5.43;4.53;;;23.60;96.80;;;;;;5065853;28;20044;-84
2023/07/08 06:02:50;;;;;;;6.72;4.45;;;23.70;96.10;;;;;;5064614;28;20408;-85
2023/07/08 06:05:16;;;;;;;4.88;4.38;;;23.70;95.40;;;;;;5065725;28;20047;-86
2023/07/08 06:07:43;;;;;;;4.93;4.32;;;23.70;94.70;;;;;;5051446;28;20090;-85
2023/07/08 06:10:09;;;;;;;4.57;3.88;;;23.90;93.90;;;;;;5066877;28;20037;-86
2023/07/08 06:12:34;;;;;;;8.82;3.80;;;24.00;93.40;;;;;;5064388;28;20439;-85
2023/07/08 06:15:00;;;;;;;5.88;3.70;;;24.10;92.60;;;;;;5067952;28;20061;-85
2023/07/08 06:17:26;;;;;;;5.82;4.25;;;24.10;92.10;;;;;;5047023;28;20052;-86
2023/07/08 06:19:52;;;;;;;5.40;4.22;;;24.40;91.70;;;;;;5063852;28;20407;-85
2023/07/08 06:22:23;;;;;;;4.80;4.30;;;24.40;91.10;;;;;;5048648;28;20048;-87
2023/07/08 06:24:48;;;;;;;5.53;4.00;;;24.30;90.20;;;;;;5051122;28;20443;-85
2023/07/08 06:27:14;;;;;;;6.35;4.35;;;24.50;90.10;;;;;;5053987;28;20049;-86
2023/07/08 06:29:40;;;;;;;72.60;11.50;;;24.80;89.50;;;;;;5068462;28;20075;-86
2023/07/08 06:32:06;;;;;;;6.63;3.88;;;24.90;88.00;;;;;;5053484;28;20044;-86
2023/07/08 06:34:32;;;;;;;5.47;3.88;;;25.00;87.00;;;;;;5059925;28;20037;-85
2023/07/08 06:36:57;;;;;;;6.95;3.95;;;25.20;86.70;;;;;;5053715;28;20043;-86
2023/07/08 06:39:23;;;;;;;4.03;3.55;;;25.20;85.80;;;;;;5051813;28;20068;-88
2023/07/08 06:41:49;;;;;;;7.82;3.65;;;25.20;85.30;;;;;;5053875;28;20068;-86
2023/07/08 06:44:14;;;;;;;5.03;4.00;;;24.70;85.70;;;;;;5070640;28;20041;-86
2023/07/08 06:46:40;;;;;;;3.85;3.33;;;24.20;87.40;;;;;;5053523;28;20086;-86
2023/07/08 06:49:08;;;;;;;4.55;3.92;;;23.30;89.30;;;;;;5052883;28;20040;-85
2023/07/08 06:51:35;;;;;;;4.35;3.38;;;22.70;90.60;;;;;;5053181;28;20135;-88
2023/07/08 06:54:04;;;;;;;4.47;3.85;;;22.50;91.50;;;;;;5053407;28;20048;-84
2023/07/08 06:56:31;;;;;;;4.20;3.80;;;22.10;92.10;;;;;;5053150;28;20059;-89
2023/07/08 06:58:56;;;;;;;3.95;3.17;;;22.40;92.70;;;;;;5066387;28;20455;-87
2023/07/08 07:01:22;;;;;;;4.68;3.55;;;22.10;92.90;;;;;;5071253;28;20500;-85
2023/07/08 07:03:50;;;;;;;5.70;3.67;;;22.00;92.90;;;;;;5068594;28;20056;-85
2023/07/08 07:06:15;;;;;;;3.83;3.50;;;21.80;93.00;;;;;;5054465;28;20409;-84
2023/07/08 07:08:42;;;;;;;6.28;3.70;;;22.00;93.20;;;;;;5069331;28;20071;-83
2023/07/08 07:11:08;;;;;;;5.10;3.63;;;22.00;93.30;;;;;;5069249;28;20132;-84
2023/07/08 07:13:33;;;;;;;5.32;3.65;;;22.10;93.30;;;;;;5054357;28;20127;-86
2023/07/08 07:15:59;;;;;;;6.95;3.72;;;22.20;93.40;;;;;;5052963;28;20529;-86
2023/07/08 07:18:24;;;;;;;7.25;3.60;;;22.40;93.20;;;;;;5049988;28;20037;-86
2023/07/08 07:20:53;;;;;;;3.75;3.45;;;22.40;92.90;;;;;;5050749;28;20056;-86
2023/07/08 07:23:19;;;;;;;4.82;3.70;;;22.40;93.10;;;;;;5051873;28;20088;-85
2023/07/08 07:25:49;;;;;;;4.80;3.30;;;22.70;93.30;;;;;;5059868;28;20415;-86
2023/07/08 07:28:16;;;;;;;6.75;3.70;;;22.70;92.90;;;;;;5054918;28;20059;-85
2023/07/08 07:30:43;;;;;;;4.72;3.53;;;22.60;92.70;;;;;;5067996;28;20049;-86
2023/07/08 07:33:09;;;;;;;5.05;4.05;;;22.70;92.60;;;;;;5068605;28;20051;-87
2023/07/08 07:35:35;;;;;;;3.80;3.50;;;22.90;92.40;;;;;;5033233;28;20057;-87
2023/07/08 07:38:00;;;;;;;4.00;3.60;;;23.00;92.50;;;;;;5065286;28;20353;-87
2023/07/08 07:40:26;;;;;;;4.05;3.42;;;23.20;92.20;;;;;;5050734;28;20036;-86
2023/07/08 07:42:52;;;;;;;4.55;3.88;;;23.40;91.90;;;;;;5069551;28;20459;-85
2023/07/08 07:45:19;;;;;;;4.00;3.60;;;23.40;91.40;;;;;;5061280;28;20084;-85
2023/07/08 07:47:45;;;;;;;6.00;3.95;;;23.30;91.10;;;;;;5059499;28;20538;-87
2023/07/08 07:50:11;;;;;;;3.92;3.40;;;23.50;90.90;;;;;;5066077;28;20053;-86
2023/07/08 07:52:37;;;;;;;3.80;3.50;;;23.60;90.60;;;;;;5053494;28;20072;-88
2023/07/08 07:55:03;;;;;;;4.57;3.72;;;23.60;90.30;;;;;;5052664;28;20037;-88
2023/07/08 07:57:29;;;;;;;5.40;3.85;;;23.70;90.20;;;;;;5070917;28;20199;-87
2023/07/08 07:59:55;;;;;;;4.72;3.40;;;23.80;90.10;;;;;;5067060;28;20143;-87
2023/07/08 08:02:20;;;;;;;3.80;3.28;;;23.80;89.80;;;;;;5067232;28;20048;-87
2023/07/08 08:04:46;;;;;;;5.90;3.50;;;24.30;90.20;;;;;;5070086;28;20040;-87
2023/07/08 08:07:12;;;;;;;4.05;3.47;;;24.10;89.50;;;;;;5068731;28;20562;-86
2023/07/08 08:09:37;;;;;;;5.35;3.50;;;24.30;89.70;;;;;;5063173;28;20068;-85
2023/07/08 08:12:04;;;;;;;3.40;3.10;;;24.60;89.70;;;;;;5061610;28;20583;-84
2023/07/08 08:14:30;;;;;;;3.60;3.30;;;24.70;89.70;;;;;;5068006;28;20052;-85
2023/07/08 08:16:55;;;;;;;3.97;3.50;;;24.80;88.70;;;;;;5069540;28;20036;-86
2023/07/08 08:19:22;;;;;;;6.35;3.65;;;25.10;87.10;;;;;;5068833;28;20053;-85
2023/07/08 08:21:48;;;;;;;6.13;3.47;;;25.20;86.30;;;;;;5069690;28;20052;-87
2023/07/08 08:24:13;;;;;;;4.38;3.45;;;25.00;84.80;;;;;;5053701;28;20040;-84
2023/07/08 08:26:39;;;;;;;4.13;3.35;;;25.10;84.30;;;;;;5068881;28;20047;-86
2023/07/08 08:29:05;;;;;;;5.57;3.45;;;25.20;84.30;;;;;;5068524;28;20124;-86
2023/07/08 08:31:33;;;;;;;3.83;3.40;;;25.30;82.40;;;;;;5066747;28;20149;-85
2023/07/08 08:33:58;;;;;;;3.90;3.30;;;25.30;82.60;;;;;;5053703;28;20037;-87
2023/07/08 08:36:24;;;;;;;5.90;4.45;;;25.40;81.10;;;;;;5068369;28;20051;-85
2023/07/08 08:38:50;;;;;;;4.85;3.40;;;25.50;80.30;;;;;;5068608;28;20508;-86
2023/07/08 08:41:18;;;;;;;4.50;3.20;;;25.50;79.30;;;;;;5066846;28;20448;-86
2023/07/08 08:43:47;;;;;;;3.80;3.50;;;25.40;79.50;;;;;;5063700;28;20051;-84
2023/07/08 08:46:31;;;;;;;5.40;3.80;;;25.60;79.40;;;;;;5066948;28;20492;-84
2023/07/08 08:49:17;;;;;;;6.50;3.63;;;25.60;78.20;;;;;;5067127;28;20116;-85
2023/07/08 08:51:43;;;;;;;4.35;3.35;;;25.70;79.10;;;;;;5059824;28;20484;-87
2023/07/08 08:54:09;;;;;;;4.88;3.60;;;25.80;79.70;;;;;;5066268;28;20128;-87
2023/07/08 08:57:05;;;;;;;5.53;3.53;;;25.90;78.70;;;;;;5067672;28;20048;-86
2023/07/08 08:59:54;;;;;;;5.22;3.55;;;26.00;77.80;;;;;;5067457;28;20032;-86
2023/07/08 09:02:37;;;;;;;4.20;3.40;;;26.10;76.90;;;;;;5084056;28;20044;-85
2023/07/08 09:05:07;;;;;;;4.10;3.40;;;26.10;77.00;;;;;;5068483;28;20036;-84
2023/07/08 09:07:55;;;;;;;7.13;3.75;;;26.00;76.80;;;;;;5051464;28;20051;-86
2023/07/08 09:11:05;;;;;;;5.25;3.70;;;26.10;76.70;;;;;;5068656;28;20044;-86
2023/07/08 09:13:36;;;;;;;4.18;3.50;;;26.20;77.10;;;;;;5043885;28;20377;-84
2023/07/08 09:16:25;;;;;;;4.30;3.50;;;26.40;77.30;;;;;;5068835;28;20149;-86
2023/07/08 09:19:07;;;;;;;4.50;3.85;;;26.50;76.20;;;;;;5068429;28;20155;-86
2023/07/08 09:21:47;;;;;;;4.32;3.35;;;26.60;74.80;;;;;;5049815;28;20045;-85
2023/07/08 09:24:22;;;;;;;5.17;3.80;;;26.70;75.70;;;;;;5069097;28;20341;-86
2023/07/08 09:26:50;;;;;;;3.78;3.47;;;26.80;74.40;;;;;;5067236;28;20041;-85
2023/07/08 09:29:17;;;;;;;4.13;3.78;;;26.80;74.70;;;;;;5041442;28;20567;-85
2023/07/08 09:31:43;;;;;;;3.92;3.60;;;26.90;73.60;;;;;;5067016;28;20037;-85
2023/07/08 09:34:14;;;;;;;3.65;3.35;;;27.00;73.40;;;;;;5051595;28;20069;-86
2023/07/08 09:36:46;;;;;;;7.60;3.90;;;27.00;73.40;;;;;;5067059;28;20036;-87
2023/07/08 09:39:14;;;;;;;4.18;3.55;;;27.00;72.80;;;;;;5068800;28;20736;-83
2023/07/08 09:41:42;;;;;;;4.28;3.60;;;27.10;72.50;;;;;;5065875;28;20052;-84
2023/07/08 09:44:17;;;;;;;10.73;4.07;;;26.80;72.30;;;;;;5066355;28;20052;-85
2023/07/08 09:46:44;;;;;;;3.63;3.33;;;27.30;71.50;;;;;;5062803;28;20075;-85
2023/07/08 09:49:33;;;;;;;3.70;3.20;;;27.30;71.30;;;;;;5060840;28;20047;-83
2023/07/08 09:52:00;;;;;;;3.88;3.30;;;27.40;70.60;;;;;;5065703;28;20060;-82
2023/07/08 09:54:26;;;;;;;3.97;3.60;;;27.60;72.20;;;;;;5050344;28;20450;-81
2023/07/08 09:57:11;;;;;;;7.78;3.88;;;27.60;69.50;;;;;;5065962;28;20036;-81
2023/07/08 09:59:48;;;;;;;4.93;4.18;;;27.80;69.30;;;;;;5063363;28;20626;-81
2023/07/08 10:02:37;;;;;;;7.07;3.63;;;27.80;68.70;;;;;;5064452;28;20106;-78
2023/07/08 10:05:16;;;;;;;6.20;4.53;;;28.00;67.60;;;;;;5065669;28;20048;-82
2023/07/08 10:07:43;;;;;;;3.83;3.45;;;28.20;68.30;;;;;;5068172;28;20124;-83
2023/07/08 10:10:15;;;;;;;10.38;4.28;;;28.20;67.60;;;;;;5067515;28;20145;-83
2023/07/08 10:12:46;;;;;;;5.75;3.53;;;28.30;68.10;;;;;;5082508;28;20090;-83
2023/07/08 10:15:38;;;;;;;5.70;3.38;;;28.40;68.10;;;;;;5064743;28;20127;-84
2023/07/08 10:18:04;;;;;;;8.20;4.32;;;28.60;66.80;;;;;;5066107;28;20051;-85
2023/07/08 10:20:56;;;;;;;3.47;3.13;;;28.50;67.00;;;;;;5066423;28;20040;-83
2023/07/08 10:23:59;;;;;;;4.70;3.70;;;28.70;65.60;;;;;;5050024;28;20048;-82
2023/07/08 10:26:27;;;;;;;8.43;3.47;;;28.80;65.90;;;;;;5066976;28;20078;-83
2023/07/08 10:28:59;;;;;;;4.82;3.30;;;28.80;65.20;;;;;;5050419;28;20048;-83
2023/07/08 10:31:32;;;;;;;4.13;3.28;;;28.70;64.20;;;;;;5067566;28;20049;-84
2023/07/08 10:34:16;;;;;;;4.68;3.70;;;28.80;64.00;;;;;;5066844;28;20767;-85
2023/07/08 10:36:48;;;;;;;5.43;3.47;;;28.90;62.90;;;;;;5066830;28;20053;-85
2023/07/08 10:39:29;;;;;;;3.65;3.10;;;29.00;64.80;;;;;;5066293;28;20212;-83
2023/07/08 10:42:16;;;;;;;3.63;3.33;;;29.10;64.00;;;;;;5047921;28;20056;-83
2023/07/08 10:44:59;;;;;;;5.50;3.60;;;29.40;63.90;;;;;;5050818;28;20045;-85
2023/07/08 10:48:03;;;;;;;5.45;3.90;;;29.50;63.80;;;;;;5034283;28;20055;-84
2023/07/08 10:50:52;;;;;;;5.32;3.50;;;29.50;62.10;;;;;;5046597;28;20101;-83
2023/07/08 10:53:46;;;;;;;3.47;3.17;;;29.60;60.90;;;;;;5051241;28;20053;-83
2023/07/08 10:56:29;;;;;;;3.42;3.13;;;29.60;60.00;;;;;;5056193;28;20078;-84
2023/07/08 10:59:19;;;;;;;3.67;3.33;;;29.60;59.80;;;;;;5055080;28;20094;-83
2023/07/08 11:02:07;;;;;;;6.47;3.42;;;29.60;60.10;;;;;;5051428;28;20045;-84
2023/07/08 11:04:53;;;;;;;4.53;3.20;;;29.70;59.50;;;;;;5066542;28;20041;-85
2023/07/08 11:07:39;;;;;;;5.45;3.50;;;29.80;58.80;;;;;;5066826;28;20048;-84
2023/07/08 11:10:54;;;;;;;5.72;3.40;;;29.80;57.60;;;;;;5066444;28;20040;-85
2023/07/08 11:13:23;;;;;;;8.68;3.45;;;29.90;57.60;;;;;;5011047;28;20152;-83
2023/07/08 11:16:12;;;;;;;3.50;3.20;;;30.00;58.60;;;;;;4998504;28;20128;-84
2023/07/08 11:18:44;;;;;;;4.43;3.40;;;30.10;57.90;;;;;;5065216;28;20500;-84
2023/07/08 11:21:17;;;;;;;;;;;30.20;57.70;;;;;;5051728;28;20299;-84
2023/07/08 11:24:03;;;;;;;3.75;3.45;;;30.20;57.20;;;;;;5069764;28;19950;-84
2023/07/08 11:26:40;;;;;;;6.50;3.38;;;30.20;56.90;;;;;;5053115;28;20076;-83
2023/07/08 11:29:25;;;;;;;5.95;3.53;;;30.30;57.10;;;;;;5069081;28;20420;-83
2023/07/08 11:31:53;;;;;;;4.05;3.30;;;30.30;57.60;;;;;;5069350;28;20061;-84
2023/07/08 11:34:20;;;;;;;8.15;3.97;;;30.40;57.30;;;;;;5068344;28;20063;-83
2023/07/08 11:36:51;;;;;;;4.57;3.60;;;30.40;56.80;;;;;;5069724;28;20114;-85
2023/07/08 11:39:40;;;;;;;3.33;3.03;;;30.60;56.40;;;;;;5069635;28;20412;-82
2023/07/08 11:42:32;;;;;;;5.53;3.40;;;30.50;55.40;;;;;;5069300;28;20063;-85
2023/07/08 11:44:59;;;;;;;4.13;3.13;;;30.60;56.60;;;;;;5053072;28;20404;-84
2023/07/08 11:47:45;;;;;;;3.70;3.28;;;30.70;55.30;;;;;;5053022;28;20519;-82
2023/07/08 11:50:39;;;;;;;5.07;3.40;;;30.70;54.70;;;;;;5051487;28;20086;-83
2023/07/08 11:53:11;;;;;;;6.55;3.70;;;30.70;55.60;;;;;;5066421;28;20504;-83
2023/07/08 11:55:44;;;;;;;3.55;3.17;;;30.80;56.20;;;;;;5070353;28;20455;-83
2023/07/08 11:58:51;;;;;;;5.22;3.30;;;30.80;56.40;;;;;;5069289;28;20526;-86
2023/07/08 12:01:30;;;;;;;12.32;4.68;;;30.80;54.10;;;;;;5034666;28;20049;-83
2023/07/08 12:04:08;;;;;;;8.63;4.05;;;30.90;54.80;;;;;;5069237;28;20878;-84
2023/07/08 12:06:33;;;;;;;7.57;3.70;;;31.00;53.20;;;;;;5070236;28;20044;-80
2023/07/08 12:09:14;;;;;;;4.25;3.50;;;31.00;53.40;;;;;;5069488;28;20052;-82
2023/07/08 12:11:43;;;;;;;7.38;3.65;;;31.00;52.80;;;;;;5069239;28;20036;-81
2023/07/08 12:14:09;;;;;;;3.90;3.50;;;31.00;53.30;;;;;;5068688;28;20055;-82
2023/07/08 12:16:35;;;;;;;8.15;4.05;;;31.10;53.10;;;;;;5069552;28;20048;-83
2023/07/08 12:19:04;;;;;;;5.25;4.10;;;31.30;53.50;;;;;;5069120;28;20040;-82
2023/07/08 12:21:35;;;;;;;7.47;3.50;;;31.30;53.70;;;;;;5068693;28;20418;-83
2023/07/08 12:24:05;;;;;;;5.30;3.60;;;31.40;53.00;;;;;;5068490;28;20496;-84
2023/07/08 12:26:34;;;;;;;5.45;3.50;;;31.40;52.00;;;;;;5051695;28;20048;-83
2023/07/08 12:29:00;;;;;;;4.30;3.90;;;31.50;52.80;;;;;;5068857;28;20043;-83
2023/07/08 12:31:31;;;;;;;5.47;4.35;;;31.60;52.00;;;;;;5064499;28;20053;-84
2023/07/08 12:33:57;;;;;;;6.33;4.00;;;31.70;50.60;;;;;;5031903;28;20048;-83
2023/07/08 12:36:27;;;;;;;4.85;3.95;;;31.70;50.50;;;;;;5048514;28;20057;-83
2023/07/08 12:38:59;;;;;;;4.57;4.10;;;31.80;50.50;;;;;;5032580;28;20041;-84
2023/07/08 12:41:29;;;;;;;5.25;4.15;;;31.80;49.70;;;;;;5033506;28;20396;-81
2023/07/08 12:43:55;;;;;;;6.17;4.13;;;31.90;50.60;;;;;;5068414;28;20740;-83
2023/07/08 12:46:22;;;;;;;4.65;4.22;;;31.90;50.80;;;;;;5068250;28;20037;-80
2023/07/08 12:48:49;;;;;;;5.18;4.20;;;32.00;50.40;;;;;;5069474;28;20123;-83
2023/07/08 12:51:20;;;;;;;5.70;4.50;;;32.10;50.20;;;;;;5069566;28;20138;-83
2023/07/08 12:53:47;;;;;;;4.88;4.32;;;31.90;50.00;;;;;;5084861;28;20036;-82
2023/07/08 12:56:13;;;;;;;6.32;4.60;;;32.10;50.10;;;;;;5050654;28;20399;-83
2023/07/08 12:58:45;;;;;;;5.15;4.40;;;31.90;49.30;;;;;;5069201;28;20116;-81
2023/07/08 13:01:26;;;;;;;4.95;4.10;;;31.80;49.10;;;;;;5067003;28;20114;-83
2023/07/08 13:04:01;;;;;;;4.72;4.32;;;31.90;50.10;;;;;;5066758;28;20864;-81